sensor_id;sensor_type;location;lat;lon;timestamp;P1;durP1;ratioP1;P2;durP2;ratioP2
17504;SDS011;8870;50.950;11.762;2022-10-17T00:01:20;2.00;;;0.68;;
17504;SDS011;8870;50.950;11.762;2022-10-17T00:06:51;2.63;;;0.90;;
17504;SDS011;8870;50.950;11.762;2022-10-17T00:12:11;1.13;;;0.80;;
17504;SDS011;8870;50.950;11.762;2022-10-17T00:17:44;1.05;;;0.80;;
17504;SDS011;8870;50.950;11.762;2022-10-17T00:23:02;2.22;;;0.80;;
17504;SDS011;8870;50.950;11.762;2022-10-17T00:28:36;1.42;;;0.70;;
17504;SDS011;8870;50.950;11.762;2022-10-17T00:33:55;2.10;;;0.70;;
17504;SDS011;8870;50.950;11.762;2022-10-17T00:39:27;1.75;;;0.80;;
17504;SDS011;8870;50.950;11.762;2022-10-17T00:50:39;0.63;;;0.60;;
17504;SDS011;8870;50.950;11.762;2022-10-17T00:56:14;3.03;;;0.80;;
17504;SDS011;8870;50.950;11.762;2022-10-17T01:01:36;1.02;;;0.60;;
17504;SDS011;8870;50.950;11.762;2022-10-17T01:07:07;2.15;;;0.60;;
17504;SDS011;8870;50.950;11.762;2022-10-17T01:12:26;2.13;;;0.73;;
17504;SDS011;8870;50.950;11.762;2022-10-17T01:18:07;1.42;;;0.60;;
17504;SDS011;8870;50.950;11.762;2022-10-17T01:23:42;2.92;;;0.73;;
17504;SDS011;8870;50.950;11.762;2022-10-17T01:29:32;3.55;;;0.60;;
17504;SDS011;8870;50.950;11.762;2022-10-17T01:35:05;0.85;;;0.60;;
17504;SDS011;8870;50.950;11.762;2022-10-17T01:40:42;1.17;;;0.60;;
17504;SDS011;8870;50.950;11.762;2022-10-17T01:46:20;0.98;;;0.63;;
17504;SDS011;8870;50.950;11.762;2022-10-17T01:51:48;1.15;;;0.65;;
17504;SDS011;8870;50.950;11.762;2022-10-17T01:57:25;2.35;;;0.80;;
17504;SDS011;8870;50.950;11.762;2022-10-17T02:02:47;1.73;;;0.70;;
17504;SDS011;8870;50.950;11.762;2022-10-17T02:08:28;2.17;;;0.90;;
17504;SDS011;8870;50.950;11.762;2022-10-17T02:14:03;1.45;;;0.75;;
17504;SDS011;8870;50.950;11.762;2022-10-17T02:19:49;0.70;;;0.65;;
17504;SDS011;8870;50.950;11.762;2022-10-17T02:25:20;1.95;;;0.80;;
17504;SDS011;8870;50.950;11.762;2022-10-17T02:30:59;1.50;;;0.70;;
17504;SDS011;8870;50.950;11.762;2022-10-17T02:36:22;1.17;;;0.77;;
17504;SDS011;8870;50.950;11.762;2022-10-17T02:42:01;3.75;;;0.80;;
17504;SDS011;8870;50.950;11.762;2022-10-17T02:47:36;1.63;;;0.98;;
17504;SDS011;8870;50.950;11.762;2022-10-17T02:58:38;2.20;;;0.90;;
17504;SDS011;8870;50.950;11.762;2022-10-17T03:04:06;2.70;;;0.90;;
17504;SDS011;8870;50.950;11.762;2022-10-17T03:09:39;1.08;;;0.98;;
17504;SDS011;8870;50.950;11.762;2022-10-17T03:15:01;4.07;;;1.00;;
17504;SDS011;8870;50.950;11.762;2022-10-17T03:20:32;0.90;;;0.90;;
17504;SDS011;8870;50.950;11.762;2022-10-17T03:25:51;1.50;;;0.90;;
17504;SDS011;8870;50.950;11.762;2022-10-17T03:31:26;2.28;;;1.27;;
17504;SDS011;8870;50.950;11.762;2022-10-17T03:36:45;1.23;;;1.00;;
17504;SDS011;8870;50.950;11.762;2022-10-17T03:42:19;1.42;;;1.10;;
17504;SDS011;8870;50.950;11.762;2022-10-17T03:47:52;1.70;;;1.00;;
17504;SDS011;8870;50.950;11.762;2022-10-17T03:53:10;1.63;;;1.10;;
17504;SDS011;8870;50.950;11.762;2022-10-17T03:58:41;1.00;;;0.85;;
17504;SDS011;8870;50.950;11.762;2022-10-17T04:04:03;1.02;;;0.90;;
17504;SDS011;8870;50.950;11.762;2022-10-17T04:09:35;1.92;;;1.05;;
17504;SDS011;8870;50.950;11.762;2022-10-17T04:14:55;1.77;;;1.10;;
17504;SDS011;8870;50.950;11.762;2022-10-17T04:20:29;1.85;;;1.10;;
17504;SDS011;8870;50.950;11.762;2022-10-17T04:25:48;1.85;;;1.10;;
17504;SDS011;8870;50.950;11.762;2022-10-17T04:31:19;2.45;;;1.20;;
17504;SDS011;8870;50.950;11.762;2022-10-17T04:36:57;2.03;;;1.25;;
17504;SDS011;8870;50.950;11.762;2022-10-17T04:42:31;1.40;;;1.10;;
17504;SDS011;8870;50.950;11.762;2022-10-17T04:48:09;2.60;;;1.20;;
17504;SDS011;8870;50.950;11.762;2022-10-17T04:53:30;2.45;;;1.00;;
17504;SDS011;8870;50.950;11.762;2022-10-17T04:59:02;1.13;;;1.00;;
17504;SDS011;8870;50.950;11.762;2022-10-17T05:04:25;2.15;;;1.15;;
17504;SDS011;8870;50.950;11.762;2022-10-17T05:09:59;1.00;;;0.90;;
17504;SDS011;8870;50.950;11.762;2022-10-17T05:15:21;1.98;;;0.90;;
17504;SDS011;8870;50.950;11.762;2022-10-17T05:20:53;1.15;;;0.90;;
17504;SDS011;8870;50.950;11.762;2022-10-17T05:26:15;1.52;;;0.93;;
17504;SDS011;8870;50.950;11.762;2022-10-17T05:31:47;2.35;;;1.10;;
17504;SDS011;8870;50.950;11.762;2022-10-17T05:37:08;1.25;;;0.90;;
17504;SDS011;8870;50.950;11.762;2022-10-17T05:42:47;0.70;;;0.70;;
17504;SDS011;8870;50.950;11.762;2022-10-17T05:48:18;2.70;;;0.90;;
17504;SDS011;8870;50.950;11.762;2022-10-17T05:53:49;2.50;;;0.90;;
17504;SDS011;8870;50.950;11.762;2022-10-17T05:59:11;0.70;;;0.70;;
17504;SDS011;8870;50.950;11.762;2022-10-17T06:04:52;0.88;;;0.80;;
17504;SDS011;8870;50.950;11.762;2022-10-17T06:10:10;1.90;;;0.93;;
17504;SDS011;8870;50.950;11.762;2022-10-17T06:15:46;2.20;;;0.70;;
17504;SDS011;8870;50.950;11.762;2022-10-17T06:21:06;1.33;;;0.80;;
17504;SDS011;8870;50.950;11.762;2022-10-17T06:26:45;1.50;;;0.90;;
17504;SDS011;8870;50.950;11.762;2022-10-17T06:32:06;0.98;;;0.70;;
17504;SDS011;8870;50.950;11.762;2022-10-17T06:37:37;1.88;;;0.80;;
17504;SDS011;8870;50.950;11.762;2022-10-17T06:43:03;1.92;;;0.90;;
17504;SDS011;8870;50.950;11.762;2022-10-17T06:49:02;0.95;;;0.73;;
17504;SDS011;8870;50.950;11.762;2022-10-17T06:54:25;1.80;;;0.93;;
17504;SDS011;8870;50.950;11.762;2022-10-17T07:00:11;0.75;;;0.70;;
17504;SDS011;8870;50.950;11.762;2022-10-17T07:05:33;1.83;;;0.77;;
17504;SDS011;8870;50.950;11.762;2022-10-17T07:11:09;1.95;;;0.98;;
17504;SDS011;8870;50.950;11.762;2022-10-17T07:16:28;1.05;;;0.77;;
17504;SDS011;8870;50.950;11.762;2022-10-17T07:22:06;2.15;;;0.70;;
17504;SDS011;8870;50.950;11.762;2022-10-17T07:27:28;1.38;;;0.80;;
17504;SDS011;8870;50.950;11.762;2022-10-17T07:33:02;2.67;;;0.80;;
17504;SDS011;8870;50.950;11.762;2022-10-17T07:38:23;2.65;;;0.90;;
17504;SDS011;8870;50.950;11.762;2022-10-17T07:43:54;1.58;;;0.95;;
17504;SDS011;8870;50.950;11.762;2022-10-17T07:49:19;2.53;;;0.90;;
17504;SDS011;8870;50.950;11.762;2022-10-17T07:54:54;1.05;;;0.88;;
17504;SDS011;8870;50.950;11.762;2022-10-17T08:00:12;1.83;;;0.90;;
17504;SDS011;8870;50.950;11.762;2022-10-17T08:05:44;2.65;;;0.82;;
17504;SDS011;8870;50.950;11.762;2022-10-17T08:11:06;2.08;;;0.70;;
17504;SDS011;8870;50.950;11.762;2022-10-17T08:16:38;2.03;;;0.80;;
17504;SDS011;8870;50.950;11.762;2022-10-17T08:21:57;1.73;;;0.70;;
17504;SDS011;8870;50.950;11.762;2022-10-17T08:27:32;2.35;;;0.70;;
17504;SDS011;8870;50.950;11.762;2022-10-17T08:32:50;1.10;;;0.65;;
17504;SDS011;8870;50.950;11.762;2022-10-17T08:38:21;2.72;;;0.73;;
17504;SDS011;8870;50.950;11.762;2022-10-17T08:43:48;1.63;;;0.60;;
17504;SDS011;8870;50.950;11.762;2022-10-17T08:49:33;1.45;;;0.80;;
17504;SDS011;8870;50.950;11.762;2022-10-17T08:55:00;1.75;;;0.77;;
17504;SDS011;8870;50.950;11.762;2022-10-17T09:00:36;1.48;;;0.60;;
17504;SDS011;8870;50.950;11.762;2022-10-17T09:05:58;3.25;;;0.73;;
17504;SDS011;8870;50.950;11.762;2022-10-17T09:11:47;2.70;;;0.75;;
17504;SDS011;8870;50.950;11.762;2022-10-17T09:17:17;2.08;;;0.70;;
17504;SDS011;8870;50.950;11.762;2022-10-17T09:23:01;1.73;;;0.85;;
17504;SDS011;8870;50.950;11.762;2022-10-17T09:28:26;3.17;;;0.77;;
17504;SDS011;8870;50.950;11.762;2022-10-17T09:34:07;2.20;;;1.00;;
17504;SDS011;8870;50.950;11.762;2022-10-17T09:39:34;2.33;;;0.68;;
17504;SDS011;8870;50.950;11.762;2022-10-17T09:45:12;2.72;;;0.82;;
17504;SDS011;8870;50.950;11.762;2022-10-17T09:50:41;2.17;;;0.77;;
17504;SDS011;8870;50.950;11.762;2022-10-17T10:02:18;4.55;;;0.70;;
17504;SDS011;8870;50.950;11.762;2022-10-17T10:08:02;3.42;;;0.60;;
17504;SDS011;8870;50.950;11.762;2022-10-17T10:13:23;0.95;;;0.60;;
17504;SDS011;8870;50.950;11.762;2022-10-17T10:18:56;3.10;;;0.88;;
17504;SDS011;8870;50.950;11.762;2022-10-17T10:24:19;1.83;;;0.65;;
17504;SDS011;8870;50.950;11.762;2022-10-17T10:29:50;1.70;;;0.60;;
17504;SDS011;8870;50.950;11.762;2022-10-17T10:35:17;2.50;;;0.70;;
17504;SDS011;8870;50.950;11.762;2022-10-17T10:40:53;1.33;;;0.60;;
17504;SDS011;8870;50.950;11.762;2022-10-17T10:46:16;1.67;;;0.70;;
17504;SDS011;8870;50.950;11.762;2022-10-17T10:51:50;2.60;;;0.60;;
17504;SDS011;8870;50.950;11.762;2022-10-17T10:57:13;2.22;;;0.60;;
17504;SDS011;8870;50.950;11.762;2022-10-17T11:02:52;1.35;;;0.50;;
17504;SDS011;8870;50.950;11.762;2022-10-17T11:08:22;1.05;;;0.50;;
17504;SDS011;8870;50.950;11.762;2022-10-17T11:14:02;1.17;;;0.60;;
17504;SDS011;8870;50.950;11.762;2022-10-17T11:19:27;1.35;;;0.60;;
17504;SDS011;8870;50.950;11.762;2022-10-17T11:25:05;1.35;;;0.60;;
17504;SDS011;8870;50.950;11.762;2022-10-17T11:30:40;2.33;;;0.63;;
17504;SDS011;8870;50.950;11.762;2022-10-17T11:36:23;1.23;;;0.70;;
17504;SDS011;8870;50.950;11.762;2022-10-17T11:41:53;1.13;;;0.60;;
17504;SDS011;8870;50.950;11.762;2022-10-17T11:47:33;0.88;;;0.50;;
17504;SDS011;8870;50.950;11.762;2022-10-17T11:53:02;1.65;;;0.57;;
17504;SDS011;8870;50.950;11.762;2022-10-17T11:58:36;3.15;;;0.50;;
17504;SDS011;8870;50.950;11.762;2022-10-17T12:04:06;3.70;;;0.60;;
17504;SDS011;8870;50.950;11.762;2022-10-17T12:09:51;1.65;;;0.65;;
17504;SDS011;8870;50.950;11.762;2022-10-17T12:15:27;1.27;;;0.60;;
17504;SDS011;8870;50.950;11.762;2022-10-17T12:21:03;1.38;;;0.60;;
17504;SDS011;8870;50.950;11.762;2022-10-17T12:26:24;1.50;;;0.50;;
17504;SDS011;8870;50.950;11.762;2022-10-17T12:32:08;1.88;;;0.70;;
17504;SDS011;8870;50.950;11.762;2022-10-17T12:43:48;1.98;;;0.50;;
17504;SDS011;8870;50.950;11.762;2022-10-17T12:49:35;2.67;;;0.55;;
17504;SDS011;8870;50.950;11.762;2022-10-17T12:55:04;1.15;;;0.63;;
17504;SDS011;8870;50.950;11.762;2022-10-17T13:00:42;4.35;;;0.63;;
17504;SDS011;8870;50.950;11.762;2022-10-17T13:06:26;2.35;;;0.70;;
17504;SDS011;8870;50.950;11.762;2022-10-17T13:11:56;1.23;;;0.50;;
17504;SDS011;8870;50.950;11.762;2022-10-17T13:17:26;0.88;;;0.50;;
17504;SDS011;8870;50.950;11.762;2022-10-17T13:22:50;2.85;;;0.50;;
17504;SDS011;8870;50.950;11.762;2022-10-17T13:28:24;3.05;;;0.60;;
17504;SDS011;8870;50.950;11.762;2022-10-17T13:33:48;1.20;;;0.60;;
17504;SDS011;8870;50.950;11.762;2022-10-17T13:39:27;1.73;;;0.60;;
17504;SDS011;8870;50.950;11.762;2022-10-17T13:45:08;2.22;;;0.55;;
17504;SDS011;8870;50.950;11.762;2022-10-17T13:50:46;1.17;;;0.60;;
17504;SDS011;8870;50.950;11.762;2022-10-17T13:56:16;2.88;;;0.50;;
17504;SDS011;8870;50.950;11.762;2022-10-17T14:01:53;1.73;;;0.60;;
17504;SDS011;8870;50.950;11.762;2022-10-17T14:07:18;0.95;;;0.40;;
17504;SDS011;8870;50.950;11.762;2022-10-17T14:13:18;2.03;;;0.60;;
17504;SDS011;8870;50.950;11.762;2022-10-17T14:18:41;2.25;;;0.57;;
17504;SDS011;8870;50.950;11.762;2022-10-17T14:24:26;1.45;;;0.50;;
17504;SDS011;8870;50.950;11.762;2022-10-17T14:29:49;2.17;;;0.52;;
17504;SDS011;8870;50.950;11.762;2022-10-17T14:35:26;0.85;;;0.35;;
17504;SDS011;8870;50.950;11.762;2022-10-17T14:40:49;2.58;;;0.40;;
17504;SDS011;8870;50.950;11.762;2022-10-17T14:46:43;0.60;;;0.40;;
17504;SDS011;8870;50.950;11.762;2022-10-17T14:58:16;1.15;;;0.40;;
17504;SDS011;8870;50.950;11.762;2022-10-17T15:03:34;1.95;;;0.50;;
17504;SDS011;8870;50.950;11.762;2022-10-17T15:09:08;2.00;;;0.50;;
17504;SDS011;8870;50.950;11.762;2022-10-17T15:14:27;3.55;;;0.55;;
17504;SDS011;8870;50.950;11.762;2022-10-17T15:19:57;1.38;;;0.60;;
17504;SDS011;8870;50.950;11.762;2022-10-17T15:25:18;2.17;;;0.55;;
17504;SDS011;8870;50.950;11.762;2022-10-17T15:30:49;2.70;;;0.70;;
17504;SDS011;8870;50.950;11.762;2022-10-17T15:36:20;0.52;;;0.50;;
17504;SDS011;8870;50.950;11.762;2022-10-17T15:41:56;3.30;;;0.60;;
17504;SDS011;8870;50.950;11.762;2022-10-17T15:47:18;1.50;;;0.50;;
17504;SDS011;8870;50.950;11.762;2022-10-17T15:52:53;2.08;;;0.50;;
17504;SDS011;8870;50.950;11.762;2022-10-17T15:58:15;2.47;;;0.77;;
17504;SDS011;8870;50.950;11.762;2022-10-17T16:03:49;2.67;;;1.00;;
17504;SDS011;8870;50.950;11.762;2022-10-17T16:09:07;3.05;;;1.10;;
17504;SDS011;8870;50.950;11.762;2022-10-17T16:14:44;3.17;;;0.90;;
17504;SDS011;8870;50.950;11.762;2022-10-17T16:20:21;2.75;;;0.73;;
17504;SDS011;8870;50.950;11.762;2022-10-17T16:25:53;1.70;;;0.70;;
17504;SDS011;8870;50.950;11.762;2022-10-17T16:31:24;1.25;;;0.85;;
17504;SDS011;8870;50.950;11.762;2022-10-17T16:36:56;1.52;;;0.80;;
17504;SDS011;8870;50.950;11.762;2022-10-17T16:42:21;3.20;;;1.10;;
17504;SDS011;8870;50.950;11.762;2022-10-17T16:47:55;2.97;;;1.00;;
17504;SDS011;8870;50.950;11.762;2022-10-17T16:53:12;2.17;;;0.80;;
17504;SDS011;8870;50.950;11.762;2022-10-17T16:58:44;2.88;;;0.85;;
17504;SDS011;8870;50.950;11.762;2022-10-17T17:04:05;2.28;;;0.98;;
17504;SDS011;8870;50.950;11.762;2022-10-17T17:09:37;1.42;;;0.98;;
17504;SDS011;8870;50.950;11.762;2022-10-17T17:14:56;1.95;;;1.00;;
17504;SDS011;8870;50.950;11.762;2022-10-17T17:20:29;2.85;;;0.98;;
17504;SDS011;8870;50.950;11.762;2022-10-17T17:25:49;1.90;;;0.90;;
17504;SDS011;8870;50.950;11.762;2022-10-17T17:31:28;1.73;;;0.88;;
17504;SDS011;8870;50.950;11.762;2022-10-17T17:36:50;2.03;;;0.90;;
17504;SDS011;8870;50.950;11.762;2022-10-17T17:42:21;2.28;;;0.90;;
17504;SDS011;8870;50.950;11.762;2022-10-17T17:47:40;2.60;;;0.82;;
17504;SDS011;8870;50.950;11.762;2022-10-17T17:53:16;2.28;;;1.00;;
17504;SDS011;8870;50.950;11.762;2022-10-17T17:58:35;5.65;;;0.90;;
17504;SDS011;8870;50.950;11.762;2022-10-17T18:04:08;1.15;;;1.00;;
17504;SDS011;8870;50.950;11.762;2022-10-17T18:09:28;1.25;;;0.80;;
17504;SDS011;8870;50.950;11.762;2022-10-17T18:14:59;3.72;;;0.75;;
17504;SDS011;8870;50.950;11.762;2022-10-17T18:20:18;1.27;;;0.88;;
17504;SDS011;8870;50.950;11.762;2022-10-17T18:25:55;2.22;;;0.93;;
17504;SDS011;8870;50.950;11.762;2022-10-17T18:31:15;1.27;;;0.80;;
17504;SDS011;8870;50.950;11.762;2022-10-17T18:36:52;0.85;;;0.65;;
17504;SDS011;8870;50.950;11.762;2022-10-17T18:42:22;2.28;;;0.77;;
17504;SDS011;8870;50.950;11.762;2022-10-17T18:47:53;2.55;;;0.82;;
17504;SDS011;8870;50.950;11.762;2022-10-17T18:53:12;1.40;;;0.80;;
17504;SDS011;8870;50.950;11.762;2022-10-17T18:58:45;2.30;;;0.70;;
17504;SDS011;8870;50.950;11.762;2022-10-17T19:04:04;5.65;;;0.80;;
17504;SDS011;8870;50.950;11.762;2022-10-17T19:09:34;1.33;;;0.50;;
17504;SDS011;8870;50.950;11.762;2022-10-17T19:14:55;1.48;;;0.77;;
17504;SDS011;8870;50.950;11.762;2022-10-17T19:20:26;1.90;;;0.80;;
17504;SDS011;8870;50.950;11.762;2022-10-17T19:25:45;2.05;;;0.80;;
17504;SDS011;8870;50.950;11.762;2022-10-17T19:31:18;2.40;;;1.00;;
17504;SDS011;8870;50.950;11.762;2022-10-17T19:36:37;1.30;;;0.90;;
17504;SDS011;8870;50.950;11.762;2022-10-17T19:42:10;1.88;;;0.88;;
17504;SDS011;8870;50.950;11.762;2022-10-17T19:47:43;2.60;;;1.00;;
17504;SDS011;8870;50.950;11.762;2022-10-17T19:53:01;1.95;;;0.90;;
17504;SDS011;8870;50.950;11.762;2022-10-17T19:58:32;1.48;;;0.77;;
17504;SDS011;8870;50.950;11.762;2022-10-17T20:03:59;2.45;;;0.90;;
17504;SDS011;8870;50.950;11.762;2022-10-17T20:09:30;3.17;;;1.05;;
17504;SDS011;8870;50.950;11.762;2022-10-17T20:14:49;2.45;;;0.90;;
17504;SDS011;8870;50.950;11.762;2022-10-17T20:20:22;1.30;;;0.90;;
17504;SDS011;8870;50.950;11.762;2022-10-17T20:25:41;3.35;;;1.10;;
17504;SDS011;8870;50.950;11.762;2022-10-17T20:31:27;2.45;;;1.10;;
17504;SDS011;8870;50.950;11.762;2022-10-17T20:36:47;3.08;;;1.10;;
17504;SDS011;8870;50.950;11.762;2022-10-17T20:42:19;2.95;;;1.20;;
17504;SDS011;8870;50.950;11.762;2022-10-17T20:47:52;2.45;;;1.05;;
17504;SDS011;8870;50.950;11.762;2022-10-17T20:53:12;1.83;;;1.00;;
17504;SDS011;8870;50.950;11.762;2022-10-17T20:58:51;1.02;;;0.90;;
17504;SDS011;8870;50.950;11.762;2022-10-17T21:04:10;2.13;;;1.00;;
17504;SDS011;8870;50.950;11.762;2022-10-17T21:10:02;2.30;;;1.23;;
17504;SDS011;8870;50.950;11.762;2022-10-17T21:15:41;2.03;;;1.08;;
17504;SDS011;8870;50.950;11.762;2022-10-17T21:21:13;3.38;;;1.10;;
17504;SDS011;8870;50.950;11.762;2022-10-17T21:26:36;3.10;;;1.08;;
17504;SDS011;8870;50.950;11.762;2022-10-17T21:32:07;3.25;;;1.02;;
17504;SDS011;8870;50.950;11.762;2022-10-17T21:37:47;1.63;;;1.00;;
17504;SDS011;8870;50.950;11.762;2022-10-17T21:43:20;3.13;;;1.25;;
17504;SDS011;8870;50.950;11.762;2022-10-17T21:48:52;3.35;;;1.10;;
17504;SDS011;8870;50.950;11.762;2022-10-17T21:54:13;2.67;;;1.20;;
17504;SDS011;8870;50.950;11.762;2022-10-17T21:59:49;2.38;;;1.10;;
17504;SDS011;8870;50.950;11.762;2022-10-17T22:05:12;2.33;;;0.98;;
17504;SDS011;8870;50.950;11.762;2022-10-17T22:10:45;3.03;;;1.23;;
17504;SDS011;8870;50.950;11.762;2022-10-17T22:16:06;1.95;;;1.02;;
17504;SDS011;8870;50.950;11.762;2022-10-17T22:21:38;2.40;;;1.23;;
17504;SDS011;8870;50.950;11.762;2022-10-17T22:26:58;1.98;;;1.20;;
17504;SDS011;8870;50.950;11.762;2022-10-17T22:32:33;2.88;;;1.30;;
17504;SDS011;8870;50.950;11.762;2022-10-17T22:37:52;2.80;;;1.10;;
17504;SDS011;8870;50.950;11.762;2022-10-17T22:43:23;2.05;;;1.10;;
17504;SDS011;8870;50.950;11.762;2022-10-17T22:48:44;3.38;;;1.15;;
17504;SDS011;8870;50.950;11.762;2022-10-17T22:54:18;1.83;;;1.10;;
17504;SDS011;8870;50.950;11.762;2022-10-17T22:59:36;3.88;;;1.20;;
17504;SDS011;8870;50.950;11.762;2022-10-17T23:05:09;3.17;;;1.20;;
17504;SDS011;8870;50.950;11.762;2022-10-17T23:10:28;1.92;;;1.25;;
17504;SDS011;8870;50.950;11.762;2022-10-17T23:15:59;3.92;;;1.10;;
17504;SDS011;8870;50.950;11.762;2022-10-17T23:21:19;2.47;;;1.10;;
17504;SDS011;8870;50.950;11.762;2022-10-17T23:26:51;3.63;;;1.15;;
17504;SDS011;8870;50.950;11.762;2022-10-17T23:32:09;3.08;;;1.25;;
17504;SDS011;8870;50.950;11.762;2022-10-17T23:37:42;2.38;;;1.23;;
17504;SDS011;8870;50.950;11.762;2022-10-17T23:43:00;2.38;;;1.20;;
17504;SDS011;8870;50.950;11.762;2022-10-17T23:48:31;2.30;;;1.20;;
17504;SDS011;8870;50.950;11.762;2022-10-17T23:53:52;4.35;;;1.20;;
17504;SDS011;8870;50.950;11.762;2022-10-17T23:59:23;2.13;;;1.30;;
